sensor_id;sensor_type;location;lat;lon;timestamp;pressure;altitude;pressure_sealevel;temperature;humidity
39209;BME280;24929;51.982;4.664;2022-09-02T00:00:57;76740.41;;;-143.36;nan
39209;BME280;24929;51.982;4.664;2022-09-02T00:03:28;76762.47;;;-143.36;nan
39209;BME280;24929;51.982;4.664;2022-09-02T00:05:55;76760.47;;;-143.36;nan
39209;BME280;24929;51.982;4.664;2022-09-02T00:08:21;76778.53;;;-143.36;nan
39209;BME280;24929;51.982;4.664;2022-09-02T00:10:46;76794.59;;;-143.36;nan
39209;BME280;24929;51.982;4.664;2022-09-02T00:13:14;76784.56;;;-143.36;nan
39209;BME280;24929;51.982;4.664;2022-09-02T00:15:41;76786.56;;;-143.36;nan
39209;BME280;24929;51.982;4.664;2022-09-02T00:18:07;76796.59;;;-143.36;nan
39209;BME280;24929;51.982;4.664;2022-09-02T00:20:32;76794.59;;;-143.36;nan
39209;BME280;24929;51.982;4.664;2022-09-02T00:22:58;76778.53;;;-143.36;nan
39209;BME280;24929;51.982;4.664;2022-09-02T00:25:24;76788.56;;;-143.36;nan
39209;BME280;24929;51.982;4.664;2022-09-02T00:27:50;76788.56;;;-143.36;nan
39209;BME280;24929;51.982;4.664;2022-09-02T00:30:15;76794.59;;;-143.36;nan
39209;BME280;24929;51.982;4.664;2022-09-02T00:32:41;76800.59;;;-143.36;nan
39209;BME280;24929;51.982;4.664;2022-09-02T00:35:07;76790.56;;;-143.36;nan
39209;BME280;24929;51.982;4.664;2022-09-02T00:37:34;76796.59;;;-143.36;nan
39209;BME280;24929;51.982;4.664;2022-09-02T00:40:00;76806.63;;;-143.36;nan
39209;BME280;24929;51.982;4.664;2022-09-02T00:42:26;76810.66;;;-143.36;nan
39209;BME280;24929;51.982;4.664;2022-09-02T00:44:52;76806.63;;;-143.36;nan
39209;BME280;24929;51.982;4.664;2022-09-02T00:47:17;76816.66;;;-143.36;nan
39209;BME280;24929;51.982;4.664;2022-09-02T00:49:47;76790.56;;;-143.36;nan
39209;BME280;24929;51.982;4.664;2022-09-02T00:52:18;76810.66;;;-143.36;nan
39209;BME280;24929;51.982;4.664;2022-09-02T00:54:54;76782.53;;;-143.36;nan
39209;BME280;24929;51.982;4.664;2022-09-02T00:57:22;76800.59;;;-143.36;nan
39209;BME280;24929;51.982;4.664;2022-09-02T01:02:43;76802.63;;;-143.36;nan
39209;BME280;24929;51.982;4.664;2022-09-02T01:05:13;76834.72;;;-143.36;nan
39209;BME280;24929;51.982;4.664;2022-09-02T01:07:39;76824.69;;;-143.36;nan
39209;BME280;24929;51.982;4.664;2022-09-02T01:10:07;76812.66;;;-143.36;nan
39209;BME280;24929;51.982;4.664;2022-09-02T01:12:34;76832.72;;;-143.36;nan
39209;BME280;24929;51.982;4.664;2022-09-02T01:15:00;76832.72;;;-143.36;nan
39209;BME280;24929;51.982;4.664;2022-09-02T01:17:27;76828.72;;;-143.36;nan
39209;BME280;24929;51.982;4.664;2022-09-02T01:20:00;76826.69;;;-143.36;nan
39209;BME280;24929;51.982;4.664;2022-09-02T01:22:29;76846.78;;;-143.36;nan
39209;BME280;24929;51.982;4.664;2022-09-02T01:24:59;76846.78;;;-143.36;nan
39209;BME280;24929;51.982;4.664;2022-09-02T01:27:27;76866.84;;;-143.36;nan
39209;BME280;24929;51.982;4.664;2022-09-02T01:29:54;76834.72;;;-143.36;nan
39209;BME280;24929;51.982;4.664;2022-09-02T01:32:21;76838.75;;;-143.36;nan
39209;BME280;24929;51.982;4.664;2022-09-02T01:34:47;76850.78;;;-143.36;nan
39209;BME280;24929;51.982;4.664;2022-09-02T01:37:12;76842.75;;;-143.36;nan
39209;BME280;24929;51.982;4.664;2022-09-02T01:39:38;76850.78;;;-143.36;nan
39209;BME280;24929;51.982;4.664;2022-09-02T01:42:04;76858.81;;;-143.36;nan
39209;BME280;24929;51.982;4.664;2022-09-02T01:44:30;76868.84;;;-143.36;nan
39209;BME280;24929;51.982;4.664;2022-09-02T01:46:55;76850.78;;;-143.36;nan
39209;BME280;24929;51.982;4.664;2022-09-02T01:49:21;76850.78;;;-143.36;nan
39209;BME280;24929;51.982;4.664;2022-09-02T01:51:47;76878.88;;;-143.36;nan
39209;BME280;24929;51.982;4.664;2022-09-02T01:54:13;76884.91;;;-143.36;nan
39209;BME280;24929;51.982;4.664;2022-09-02T01:56:39;76872.84;;;-143.36;nan
39209;BME280;24929;51.982;4.664;2022-09-02T01:59:04;76854.78;;;-143.36;nan
39209;BME280;24929;51.982;4.664;2022-09-02T02:01:32;76862.81;;;-143.36;nan
39209;BME280;24929;51.982;4.664;2022-09-02T02:03:57;76868.84;;;-143.36;nan
39209;BME280;24929;51.982;4.664;2022-09-02T02:06:23;76868.84;;;-143.36;nan
39209;BME280;24929;51.982;4.664;2022-09-02T02:08:48;76870.84;;;-143.36;nan
39209;BME280;24929;51.982;4.664;2022-09-02T02:11:23;76844.75;;;-143.36;nan
39209;BME280;24929;51.982;4.664;2022-09-02T02:13:49;76870.84;;;-143.36;nan
39209;BME280;24929;51.982;4.664;2022-09-02T02:16:14;76884.91;;;-143.36;nan
39209;BME280;24929;51.982;4.664;2022-09-02T02:18:40;76882.88;;;-143.36;nan
39209;BME280;24929;51.982;4.664;2022-09-02T02:21:05;76880.88;;;-143.36;nan
39209;BME280;24929;51.982;4.664;2022-09-02T02:23:31;76892.94;;;-143.36;nan
39209;BME280;24929;51.982;4.664;2022-09-02T02:25:56;76882.88;;;-143.36;nan
39209;BME280;24929;51.982;4.664;2022-09-02T02:28:22;76880.88;;;-143.36;nan
39209;BME280;24929;51.982;4.664;2022-09-02T02:30:47;76890.91;;;-143.36;nan
39209;BME280;24929;51.982;4.664;2022-09-02T02:33:13;76898.94;;;-143.36;nan
39209;BME280;24929;51.982;4.664;2022-09-02T02:35:39;76908.97;;;-143.36;nan
39209;BME280;24929;51.982;4.664;2022-09-02T02:38:05;76898.94;;;-143.36;nan
39209;BME280;24929;51.982;4.664;2022-09-02T02:40:31;76902.97;;;-143.36;nan
39209;BME280;24929;51.982;4.664;2022-09-02T02:42:57;76913.00;;;-143.36;nan
39209;BME280;24929;51.982;4.664;2022-09-02T02:45:23;76915.00;;;-143.36;nan
39209;BME280;24929;51.982;4.664;2022-09-02T02:47:49;76927.03;;;-143.36;nan
39209;BME280;24929;51.982;4.664;2022-09-02T02:50:17;76917.00;;;-143.36;nan
39209;BME280;24929;51.982;4.664;2022-09-02T02:52:43;76929.06;;;-143.36;nan
39209;BME280;24929;51.982;4.664;2022-09-02T02:55:11;76896.94;;;-143.36;nan
39209;BME280;24929;51.982;4.664;2022-09-02T02:57:38;76892.94;;;-143.36;nan
39209;BME280;24929;51.982;4.664;2022-09-02T03:00:09;76890.91;;;-143.36;nan
39209;BME280;24929;51.982;4.664;2022-09-02T03:02:35;76949.13;;;-143.36;nan
39209;BME280;24929;51.982;4.664;2022-09-02T03:05:02;76927.03;;;-143.36;nan
39209;BME280;24929;51.982;4.664;2022-09-02T03:07:28;76937.06;;;-143.36;nan
39209;BME280;24929;51.982;4.664;2022-09-02T03:09:53;76943.09;;;-143.36;nan
39209;BME280;24929;51.982;4.664;2022-09-02T03:12:19;76931.06;;;-143.36;nan
39209;BME280;24929;51.982;4.664;2022-09-02T03:14:45;76925.03;;;-143.36;nan
39209;BME280;24929;51.982;4.664;2022-09-02T03:17:10;76947.13;;;-143.36;nan
39209;BME280;24929;51.982;4.664;2022-09-02T03:19:35;76947.13;;;-143.36;nan
39209;BME280;24929;51.982;4.664;2022-09-02T03:22:01;76937.06;;;-143.36;nan
39209;BME280;24929;51.982;4.664;2022-09-02T03:24:27;76933.06;;;-143.36;nan
39209;BME280;24929;51.982;4.664;2022-09-02T03:26:52;76923.03;;;-143.36;nan
39209;BME280;24929;51.982;4.664;2022-09-02T03:29:18;76919.00;;;-143.36;nan
39209;BME280;24929;51.982;4.664;2022-09-02T03:31:44;76923.03;;;-143.36;nan
39209;BME280;24929;51.982;4.664;2022-09-02T03:34:09;76923.03;;;-143.36;nan
39209;BME280;24929;51.982;4.664;2022-09-02T03:36:37;76904.97;;;-143.36;nan
39209;BME280;24929;51.982;4.664;2022-09-02T03:39:05;76913.00;;;-143.36;nan
39209;BME280;24929;51.982;4.664;2022-09-02T03:41:30;76921.03;;;-143.36;nan
39209;BME280;24929;51.982;4.664;2022-09-02T03:43:56;76931.06;;;-143.36;nan
39209;BME280;24929;51.982;4.664;2022-09-02T03:46:22;76947.13;;;-143.36;nan
39209;BME280;24929;51.982;4.664;2022-09-02T03:48:48;76937.06;;;-143.36;nan
39209;BME280;24929;51.982;4.664;2022-09-02T03:51:17;76931.06;;;-143.36;nan
39209;BME280;24929;51.982;4.664;2022-09-02T03:53:42;76941.09;;;-143.36;nan
39209;BME280;24929;51.982;4.664;2022-09-02T03:56:10;76933.06;;;-143.36;nan
39209;BME280;24929;51.982;4.664;2022-09-02T03:58:36;76953.13;;;-143.36;nan
39209;BME280;24929;51.982;4.664;2022-09-02T04:01:02;76933.06;;;-143.36;nan
39209;BME280;24929;51.982;4.664;2022-09-02T04:03:28;76951.13;;;-143.36;nan
39209;BME280;24929;51.982;4.664;2022-09-02T04:05:53;76941.09;;;-143.36;nan
39209;BME280;24929;51.982;4.664;2022-09-02T04:08:19;76937.06;;;-143.36;nan
39209;BME280;24929;51.982;4.664;2022-09-02T04:10:45;76941.09;;;-143.36;nan
39209;BME280;24929;51.982;4.664;2022-09-02T04:13:10;76943.09;;;-143.36;nan
39209;BME280;24929;51.982;4.664;2022-09-02T04:15:42;76923.03;;;-143.36;nan
39209;BME280;24929;51.982;4.664;2022-09-02T04:18:12;76923.03;;;-143.36;nan
39209;BME280;24929;51.982;4.664;2022-09-02T04:20:39;76913.00;;;-143.36;nan
39209;BME280;24929;51.982;4.664;2022-09-02T04:23:05;76927.03;;;-143.36;nan
39209;BME280;24929;51.982;4.664;2022-09-02T04:25:31;76933.06;;;-143.36;nan
39209;BME280;24929;51.982;4.664;2022-09-02T04:27:57;76927.03;;;-143.36;nan
39209;BME280;24929;51.982;4.664;2022-09-02T04:30:23;76923.03;;;-143.36;nan
39209;BME280;24929;51.982;4.664;2022-09-02T04:32:50;76929.06;;;-143.36;nan
39209;BME280;24929;51.982;4.664;2022-09-02T04:35:15;76947.13;;;-143.36;nan
39209;BME280;24929;51.982;4.664;2022-09-02T04:37:40;76941.09;;;-143.36;nan
39209;BME280;24929;51.982;4.664;2022-09-02T04:40:06;76943.09;;;-143.36;nan
39209;BME280;24929;51.982;4.664;2022-09-02T04:42:32;76933.06;;;-143.36;nan
39209;BME280;24929;51.982;4.664;2022-09-02T04:44:58;76935.06;;;-143.36;nan
39209;BME280;24929;51.982;4.664;2022-09-02T04:47:24;76945.09;;;-143.36;nan
39209;BME280;24929;51.982;4.664;2022-09-02T04:49:51;76937.06;;;-143.36;nan
39209;BME280;24929;51.982;4.664;2022-09-02T04:52:16;76939.09;;;-143.36;nan
39209;BME280;24929;51.982;4.664;2022-09-02T04:54:42;76963.16;;;-143.36;nan
39209;BME280;24929;51.982;4.664;2022-09-02T04:57:07;76939.09;;;-143.36;nan
39209;BME280;24929;51.982;4.664;2022-09-02T04:59:34;76949.13;;;-143.36;nan
39209;BME280;24929;51.982;4.664;2022-09-02T05:02:01;76945.09;;;-143.36;nan
39209;BME280;24929;51.982;4.664;2022-09-02T05:04:26;76949.13;;;-143.36;nan
39209;BME280;24929;51.982;4.664;2022-09-02T05:06:52;76955.13;;;-143.36;nan
39209;BME280;24929;51.982;4.664;2022-09-02T05:09:19;76949.13;;;-143.36;nan
39209;BME280;24929;51.982;4.664;2022-09-02T05:11:45;76947.13;;;-143.36;nan
39209;BME280;24929;51.982;4.664;2022-09-02T05:14:12;76955.13;;;-143.36;nan
39209;BME280;24929;51.982;4.664;2022-09-02T05:16:38;76947.13;;;-143.36;nan
39209;BME280;24929;51.982;4.664;2022-09-02T05:19:05;76947.13;;;-143.36;nan
39209;BME280;24929;51.982;4.664;2022-09-02T05:21:31;76971.19;;;-143.36;nan
39209;BME280;24929;51.982;4.664;2022-09-02T05:23:57;76965.19;;;-143.36;nan
39209;BME280;24929;51.982;4.664;2022-09-02T05:26:23;76969.19;;;-143.36;nan
39209;BME280;24929;51.982;4.664;2022-09-02T05:28:48;76975.22;;;-143.36;nan
39209;BME280;24929;51.982;4.664;2022-09-02T05:31:16;76945.09;;;-143.36;nan
39209;BME280;24929;51.982;4.664;2022-09-02T05:33:42;76931.06;;;-143.36;nan
39209;BME280;24929;51.982;4.664;2022-09-02T05:36:12;76890.91;;;-143.36;nan
39209;BME280;24929;51.982;4.664;2022-09-02T05:38:39;76874.88;;;-143.36;nan
39209;BME280;24929;51.982;4.664;2022-09-02T05:41:06;76862.81;;;-143.36;nan
39209;BME280;24929;51.982;4.664;2022-09-02T05:43:37;76878.88;;;-143.36;nan
39209;BME280;24929;51.982;4.664;2022-09-02T05:46:04;76882.88;;;-143.36;nan
39209;BME280;24929;51.982;4.664;2022-09-02T05:48:32;76896.94;;;-143.36;nan
39209;BME280;24929;51.982;4.664;2022-09-02T05:51:16;76908.97;;;-143.36;nan
39209;BME280;24929;51.982;4.664;2022-09-02T05:53:41;76925.03;;;-143.36;nan
39209;BME280;24929;51.982;4.664;2022-09-02T05:56:07;76929.06;;;-143.36;nan
39209;BME280;24929;51.982;4.664;2022-09-02T05:58:32;76933.06;;;-143.36;nan
39209;BME280;24929;51.982;4.664;2022-09-02T06:00:58;76919.00;;;-143.36;nan
39209;BME280;24929;51.982;4.664;2022-09-02T06:03:23;76908.97;;;-143.36;nan
39209;BME280;24929;51.982;4.664;2022-09-02T06:05:54;76868.84;;;-143.36;nan
39209;BME280;24929;51.982;4.664;2022-09-02T06:08:19;76890.91;;;-143.36;nan
39209;BME280;24929;51.982;4.664;2022-09-02T06:10:45;76898.94;;;-143.36;nan
39209;BME280;24929;51.982;4.664;2022-09-02T06:13:10;76876.88;;;-143.36;nan
39209;BME280;24929;51.982;4.664;2022-09-02T06:15:42;76872.84;;;-143.36;nan
39209;BME280;24929;51.982;4.664;2022-09-02T06:18:09;76878.88;;;-143.36;nan
39209;BME280;24929;51.982;4.664;2022-09-02T06:20:39;76826.69;;;-143.36;nan
39209;BME280;24929;51.982;4.664;2022-09-02T06:23:05;76848.78;;;-143.36;nan
39209;BME280;24929;51.982;4.664;2022-09-02T06:25:30;76836.72;;;-143.36;nan
39209;BME280;24929;51.982;4.664;2022-09-02T06:27:56;76832.72;;;-143.36;nan
39209;BME280;24929;51.982;4.664;2022-09-02T06:30:21;76844.75;;;-143.36;nan
39209;BME280;24929;51.982;4.664;2022-09-02T06:32:46;76846.78;;;-143.36;nan
39209;BME280;24929;51.982;4.664;2022-09-02T06:35:12;76840.75;;;-143.36;nan
39209;BME280;24929;51.982;4.664;2022-09-02T06:37:38;76812.66;;;-143.36;nan
39209;BME280;24929;51.982;4.664;2022-09-02T06:40:04;76812.66;;;-143.36;nan
39209;BME280;24929;51.982;4.664;2022-09-02T06:42:29;76828.72;;;-143.36;nan
39209;BME280;24929;51.982;4.664;2022-09-02T06:44:55;76810.66;;;-143.36;nan
39209;BME280;24929;51.982;4.664;2022-09-02T06:47:20;76802.63;;;-143.36;nan
39209;BME280;24929;51.982;4.664;2022-09-02T06:49:45;76796.59;;;-143.36;nan
39209;BME280;24929;51.982;4.664;2022-09-02T06:52:12;76776.53;;;-143.36;nan
39209;BME280;24929;51.982;4.664;2022-09-02T06:54:38;76768.50;;;-143.36;nan
39209;BME280;24929;51.982;4.664;2022-09-02T06:57:03;76766.50;;;-143.36;nan
39209;BME280;24929;51.982;4.664;2022-09-02T06:59:29;76736.38;;;-143.36;nan
39209;BME280;24929;51.982;4.664;2022-09-02T07:01:54;76698.25;;;-143.36;nan
39209;BME280;24929;51.982;4.664;2022-09-02T07:04:20;76658.13;;;-143.36;nan
39209;BME280;24929;51.982;4.664;2022-09-02T07:07:05;76583.88;;;-143.36;nan
39209;BME280;24929;51.982;4.664;2022-09-02T07:09:31;76537.72;;;-143.36;nan
39209;BME280;24929;51.982;4.664;2022-09-02T07:11:58;76461.47;;;-143.36;nan
39209;BME280;24929;51.982;4.664;2022-09-02T07:14:25;76421.34;;;-143.36;nan
39209;BME280;24929;51.982;4.664;2022-09-02T07:16:53;76367.16;;;-143.36;nan
39209;BME280;24929;51.982;4.664;2022-09-02T07:19:21;76341.06;;;-143.36;nan
39209;BME280;24929;51.982;4.664;2022-09-02T07:21:48;76272.84;;;-143.36;nan
39209;BME280;24929;51.982;4.664;2022-09-02T07:24:14;76252.78;;;-143.36;nan
39209;BME280;24929;51.982;4.664;2022-09-02T07:26:40;76220.66;;;-143.36;nan
39209;BME280;24929;51.982;4.664;2022-09-02T07:29:07;76260.81;;;-143.36;nan
39209;BME280;24929;51.982;4.664;2022-09-02T07:31:34;76240.75;;;-143.36;nan
39209;BME280;24929;51.982;4.664;2022-09-02T07:34:00;76234.72;;;-143.36;nan
39209;BME280;24929;51.982;4.664;2022-09-02T07:36:26;76212.66;;;-143.36;nan
39209;BME280;24929;51.982;4.664;2022-09-02T07:38:52;76194.59;;;-143.36;nan
39209;BME280;24929;51.982;4.664;2022-09-02T07:41:18;76176.53;;;-143.36;nan
39209;BME280;24929;51.982;4.664;2022-09-02T07:43:44;76172.50;;;-143.36;nan
39209;BME280;24929;51.982;4.664;2022-09-02T07:46:11;76140.41;;;-143.36;nan
39209;BME280;24929;51.982;4.664;2022-09-02T07:48:36;76156.47;;;-143.36;nan
39209;BME280;24929;51.982;4.664;2022-09-02T07:51:02;76166.50;;;-143.36;nan
39209;BME280;24929;51.982;4.664;2022-09-02T07:53:29;76130.38;;;-143.36;nan
39209;BME280;24929;51.982;4.664;2022-09-02T07:55:56;76152.44;;;-143.36;nan
39209;BME280;24929;51.982;4.664;2022-09-02T07:58:21;76164.50;;;-143.36;nan
39209;BME280;24929;51.982;4.664;2022-09-02T08:00:48;76164.50;;;-143.36;nan
39209;BME280;24929;51.982;4.664;2022-09-02T08:03:14;76168.50;;;-143.36;nan
39209;BME280;24929;51.982;4.664;2022-09-02T08:05:41;76176.53;;;-143.36;nan
39209;BME280;24929;51.982;4.664;2022-09-02T08:08:09;76158.47;;;-143.36;nan
39209;BME280;24929;51.982;4.664;2022-09-02T08:10:35;76142.41;;;-143.36;nan
39209;BME280;24929;51.982;4.664;2022-09-02T08:13:00;76092.25;;;-143.36;nan
39209;BME280;24929;51.982;4.664;2022-09-02T08:15:27;76068.19;;;-143.36;nan
39209;BME280;24929;51.982;4.664;2022-09-02T08:17:54;76068.19;;;-143.36;nan
39209;BME280;24929;51.982;4.664;2022-09-02T08:20:19;76096.25;;;-143.36;nan
39209;BME280;24929;51.982;4.664;2022-09-02T08:22:45;76130.38;;;-143.36;nan
39209;BME280;24929;51.982;4.664;2022-09-02T08:25:10;76154.44;;;-143.36;nan
39209;BME280;24929;51.982;4.664;2022-09-02T08:27:36;76228.69;;;-143.36;nan
39209;BME280;24929;51.982;4.664;2022-09-02T08:30:06;76242.75;;;-143.36;nan
39209;BME280;24929;51.982;4.664;2022-09-02T08:32:35;76258.78;;;-143.36;nan
39209;BME280;24929;51.982;4.664;2022-09-02T08:35:01;76266.81;;;-143.36;nan
39209;BME280;24929;51.982;4.664;2022-09-02T08:37:30;76264.81;;;-143.36;nan
39209;BME280;24929;51.982;4.664;2022-09-02T08:39:56;76262.81;;;-143.36;nan
39209;BME280;24929;51.982;4.664;2022-09-02T08:44:55;76268.81;;;-143.36;nan
39209;BME280;24929;51.982;4.664;2022-09-02T08:47:26;76282.88;;;-143.36;nan
39209;BME280;24929;51.982;4.664;2022-09-02T08:49:57;76272.84;;;-143.36;nan
39209;BME280;24929;51.982;4.664;2022-09-02T08:52:41;76278.84;;;-143.36;nan
39209;BME280;24929;51.982;4.664;2022-09-02T08:55:15;76274.84;;;-143.36;nan
39209;BME280;24929;51.982;4.664;2022-09-02T08:57:44;76290.91;;;-143.36;nan
39209;BME280;24929;51.982;4.664;2022-09-02T09:00:10;76272.84;;;-143.36;nan
39209;BME280;24929;51.982;4.664;2022-09-02T09:05:40;76244.75;;;-143.36;nan
39209;BME280;24929;51.982;4.664;2022-09-02T09:19:09;76104.28;;;-143.36;nan
39209;BME280;24929;51.982;4.664;2022-09-02T09:21:35;76064.16;;;-143.36;nan
39209;BME280;24929;51.982;4.664;2022-09-02T09:24:06;75991.94;;;-143.36;nan
39209;BME280;24929;51.982;4.664;2022-09-02T09:26:37;75963.84;;;-143.36;nan
39209;BME280;24929;51.982;4.664;2022-09-02T09:29:04;75961.84;;;-143.36;nan
39209;BME280;24929;51.982;4.664;2022-09-02T09:31:31;75925.72;;;-143.36;nan
39209;BME280;24929;51.982;4.664;2022-09-02T09:34:01;75923.72;;;-143.36;nan
39209;BME280;24929;51.982;4.664;2022-09-02T09:41:43;75869.53;;;-143.36;nan
39209;BME280;24929;51.982;4.664;2022-09-02T09:44:09;75837.44;;;-143.36;nan
39209;BME280;24929;51.982;4.664;2022-09-02T09:46:35;75823.38;;;-143.36;nan
39209;BME280;24929;51.982;4.664;2022-09-02T09:49:00;75809.34;;;-143.36;nan
39209;BME280;24929;51.982;4.664;2022-09-02T09:51:26;75807.34;;;-143.36;nan
39209;BME280;24929;51.982;4.664;2022-09-02T09:54:13;75747.16;;;-143.36;nan
39209;BME280;24929;51.982;4.664;2022-09-02T09:56:39;75755.16;;;-143.36;nan
39209;BME280;24929;51.982;4.664;2022-09-02T09:59:06;75688.97;;;-143.36;nan
39209;BME280;24929;51.982;4.664;2022-09-02T10:01:32;75721.06;;;-143.36;nan
39209;BME280;24929;51.982;4.664;2022-09-02T10:04:08;75674.91;;;-143.36;nan
39209;BME280;24929;51.982;4.664;2022-09-02T10:09:14;75697.00;;;-143.36;nan
39209;BME280;24929;51.982;4.664;2022-09-02T10:12:15;75680.94;;;-143.36;nan
39209;BME280;24929;51.982;4.664;2022-09-02T10:14:56;75690.97;;;-143.36;nan
39209;BME280;24929;51.982;4.664;2022-09-02T10:22:49;75632.78;;;-143.36;nan
39209;BME280;24929;51.982;4.664;2022-09-02T10:30:35;75632.78;;;-143.36;nan
39209;BME280;24929;51.982;4.664;2022-09-02T10:35:52;75598.69;;;-143.36;nan
39209;BME280;24929;51.982;4.664;2022-09-02T10:38:34;75570.59;;;-143.36;nan
39209;BME280;24929;51.982;4.664;2022-09-02T10:41:39;75538.50;;;-143.36;nan
39209;BME280;24929;51.982;4.664;2022-09-02T10:44:32;75520.44;;;-143.36;nan
39209;BME280;24929;51.982;4.664;2022-09-02T10:47:01;75556.56;;;-143.36;nan
39209;BME280;24929;51.982;4.664;2022-09-02T10:49:43;75528.47;;;-143.36;nan
39209;BME280;24929;51.982;4.664;2022-09-02T10:52:25;75484.31;;;-143.36;nan
39209;BME280;24929;51.982;4.664;2022-09-02T10:58:03;75554.53;;;-143.36;nan
39209;BME280;24929;51.982;4.664;2022-09-02T11:00:27;75546.53;;;-143.36;nan
39209;BME280;24929;51.982;4.664;2022-09-02T11:03:13;75528.47;;;-143.36;nan
39209;BME280;24929;51.982;4.664;2022-09-02T11:05:54;75516.44;;;-143.36;nan
39209;BME280;24929;51.982;4.664;2022-09-02T11:08:37;75526.47;;;-143.36;nan
39209;BME280;24929;51.982;4.664;2022-09-02T11:11:12;75498.38;;;-143.36;nan
39209;BME280;24929;51.982;4.664;2022-09-02T11:14:16;75462.25;;;-143.36;nan
39209;BME280;24929;51.982;4.664;2022-09-02T11:19:24;75410.09;;;-143.36;nan
39209;BME280;24929;51.982;4.664;2022-09-02T11:22:00;75394.06;;;-143.36;nan
39209;BME280;24929;51.982;4.664;2022-09-02T11:24:35;75434.19;;;-143.36;nan
39209;BME280;24929;51.982;4.664;2022-09-02T11:27:16;75440.19;;;-143.36;nan
39209;BME280;24929;51.982;4.664;2022-09-02T11:35:40;75363.97;;;-143.36;nan
39209;BME280;24929;51.982;4.664;2022-09-02T11:55:33;75321.81;;;-143.36;nan
39209;BME280;24929;51.982;4.664;2022-09-02T11:58:00;75355.94;;;-143.36;nan
39209;BME280;24929;51.982;4.664;2022-09-02T12:00:32;75301.78;;;-143.36;nan
39209;BME280;24929;51.982;4.664;2022-09-02T12:08:02;75261.66;;;-143.36;nan
39209;BME280;24929;51.982;4.664;2022-09-02T12:13:32;75233.56;;;-143.36;nan
39209;BME280;24929;51.982;4.664;2022-09-02T12:21:24;75219.53;;;-143.36;nan
39209;BME280;24929;51.982;4.664;2022-09-02T12:26:16;75275.69;;;-143.36;nan
39209;BME280;24929;51.982;4.664;2022-09-02T12:28:42;75279.69;;;-143.36;nan
39209;BME280;24929;51.982;4.664;2022-09-02T12:31:16;75241.59;;;-143.36;nan
39209;BME280;24929;51.982;4.664;2022-09-02T12:33:46;75261.66;;;-143.36;nan
39209;BME280;24929;51.982;4.664;2022-09-02T12:47:04;75157.31;;;-143.36;nan
39209;BME280;24929;51.982;4.664;2022-09-02T12:57:44;75215.50;;;-143.36;nan
39209;BME280;24929;51.982;4.664;2022-09-02T13:00:28;75195.44;;;-143.36;nan
39209;BME280;24929;51.982;4.664;2022-09-02T13:06:06;75149.31;;;-143.36;nan
39209;BME280;24929;51.982;4.664;2022-09-02T13:17:20;75097.16;;;-143.36;nan
39209;BME280;24929;51.982;4.664;2022-09-02T13:20:13;75089.13;;;-143.36;nan
39209;BME280;24929;51.982;4.664;2022-09-02T13:25:42;75103.16;;;-143.36;nan
39209;BME280;24929;51.982;4.664;2022-09-02T13:31:22;75105.19;;;-143.36;nan
39209;BME280;24929;51.982;4.664;2022-09-02T13:34:02;75055.03;;;-143.36;nan
39209;BME280;24929;51.982;4.664;2022-09-02T13:36:31;75087.13;;;-143.36;nan
39209;BME280;24929;51.982;4.664;2022-09-02T13:39:27;75101.16;;;-143.36;nan
39209;BME280;24929;51.982;4.664;2022-09-02T13:41:53;75115.19;;;-143.36;nan
39209;BME280;24929;51.982;4.664;2022-09-02T13:44:24;75089.13;;;-143.36;nan
39209;BME280;24929;51.982;4.664;2022-09-02T13:46:53;75087.13;;;-143.36;nan
39209;BME280;24929;51.982;4.664;2022-09-02T13:49:25;75065.06;;;-143.36;nan
39209;BME280;24929;51.982;4.664;2022-09-02T13:51:53;75038.97;;;-143.36;nan
39209;BME280;24929;51.982;4.664;2022-09-02T13:54:27;75051.00;;;-143.36;nan
39209;BME280;24929;51.982;4.664;2022-09-02T13:56:54;75051.00;;;-143.36;nan
39209;BME280;24929;51.982;4.664;2022-09-02T13:59:38;75049.00;;;-143.36;nan
39209;BME280;24929;51.982;4.664;2022-09-02T14:02:30;75036.97;;;-143.36;nan
39209;BME280;24929;51.982;4.664;2022-09-02T14:05:11;75038.97;;;-143.36;nan
39209;BME280;24929;51.982;4.664;2022-09-02T14:07:43;75024.94;;;-143.36;nan
39209;BME280;24929;51.982;4.664;2022-09-02T14:10:14;75020.91;;;-143.36;nan
39209;BME280;24929;51.982;4.664;2022-09-02T14:12:40;75018.91;;;-143.36;nan
39209;BME280;24929;51.982;4.664;2022-09-02T14:15:07;74988.81;;;-143.36;nan
39209;BME280;24929;51.982;4.664;2022-09-02T14:17:34;74980.81;;;-143.36;nan
39209;BME280;24929;51.982;4.664;2022-09-02T14:20:18;74958.75;;;-143.36;nan
39209;BME280;24929;51.982;4.664;2022-09-02T14:22:52;74956.72;;;-143.36;nan
39209;BME280;24929;51.982;4.664;2022-09-02T14:25:18;75018.91;;;-143.36;nan
39209;BME280;24929;51.982;4.664;2022-09-02T14:27:52;74998.84;;;-143.36;nan
39209;BME280;24929;51.982;4.664;2022-09-02T14:30:31;75004.88;;;-143.36;nan
39209;BME280;24929;51.982;4.664;2022-09-02T14:36:05;74984.81;;;-143.36;nan
39209;BME280;24929;51.982;4.664;2022-09-02T14:39:13;74966.75;;;-143.36;nan
39209;BME280;24929;51.982;4.664;2022-09-02T14:41:48;74986.81;;;-143.36;nan
39209;BME280;24929;51.982;4.664;2022-09-02T14:44:20;74990.84;;;-143.36;nan
39209;BME280;24929;51.982;4.664;2022-09-02T14:46:49;74990.84;;;-143.36;nan
39209;BME280;24929;51.982;4.664;2022-09-02T14:49:38;74994.84;;;-143.36;nan
39209;BME280;24929;51.982;4.664;2022-09-02T14:52:33;74980.81;;;-143.36;nan
39209;BME280;24929;51.982;4.664;2022-09-02T14:55:00;75004.88;;;-143.36;nan
39209;BME280;24929;51.982;4.664;2022-09-02T14:57:31;75006.88;;;-143.36;nan
39209;BME280;24929;51.982;4.664;2022-09-02T15:00:01;75000.88;;;-143.36;nan
39209;BME280;24929;51.982;4.664;2022-09-02T15:02:33;74980.81;;;-143.36;nan
39209;BME280;24929;51.982;4.664;2022-09-02T15:05:05;74968.78;;;-143.36;nan
39209;BME280;24929;51.982;4.664;2022-09-02T15:07:31;74988.81;;;-143.36;nan
39209;BME280;24929;51.982;4.664;2022-09-02T15:09:57;74976.78;;;-143.36;nan
39209;BME280;24929;51.982;4.664;2022-09-02T15:12:26;74982.81;;;-143.36;nan
39209;BME280;24929;51.982;4.664;2022-09-02T15:14:54;75012.91;;;-143.36;nan